sensor_id;sensor_type;location;lat;lon;timestamp;pressure;altitude;pressure_sealevel;temperature;humidity
75745;BME280;74462;51.366;-0.222;2024-02-23T00:00:45;98495.48;;;4.62;74.93
75745;BME280;74462;51.366;-0.222;2024-02-23T00:01:50;98490.34;;;4.53;75.05
75745;BME280;74462;51.366;-0.222;2024-02-23T00:02:54;98489.37;;;4.56;75.13
75745;BME280;74462;51.366;-0.222;2024-02-23T00:04:00;98486.06;;;4.60;75.04
75745;BME280;74462;51.366;-0.222;2024-02-23T00:05:06;98483.31;;;4.57;75.13
75745;BME280;74462;51.366;-0.222;2024-02-23T00:06:11;98484.39;;;4.55;75.03
75745;BME280;74462;51.366;-0.222;2024-02-23T00:07:15;98483.58;;;4.53;75.40
75745;BME280;74462;51.366;-0.222;2024-02-23T00:08:20;98483.65;;;4.57;75.41
75745;BME280;74462;51.366;-0.222;2024-02-23T00:09:24;98483.52;;;4.59;75.41
75745;BME280;74462;51.366;-0.222;2024-02-23T00:10:30;98480.20;;;4.62;75.43
75745;BME280;74462;51.366;-0.222;2024-02-23T00:11:34;98475.08;;;4.64;75.05
75745;BME280;74462;51.366;-0.222;2024-02-23T00:12:42;98474.58;;;4.66;75.25
75745;BME280;74462;51.366;-0.222;2024-02-23T00:13:47;98473.31;;;4.61;75.20
75745;BME280;74462;51.366;-0.222;2024-02-23T00:14:52;98470.95;;;4.63;75.18
75745;BME280;74462;51.366;-0.222;2024-02-23T00:15:56;98472.50;;;4.64;75.09
75745;BME280;74462;51.366;-0.222;2024-02-23T00:17:01;98468.67;;;4.63;75.21
75745;BME280;74462;51.366;-0.222;2024-02-23T00:18:06;98469.79;;;4.65;75.30
75745;BME280;74462;51.366;-0.222;2024-02-23T00:19:11;98466.91;;;4.61;75.52
75745;BME280;74462;51.366;-0.222;2024-02-23T00:20:15;98470.06;;;4.62;75.56
75745;BME280;74462;51.366;-0.222;2024-02-23T00:21:20;98469.63;;;4.61;75.63
75745;BME280;74462;51.366;-0.222;2024-02-23T00:22:24;98466.89;;;4.56;75.30
75745;BME280;74462;51.366;-0.222;2024-02-23T00:23:29;98462.18;;;4.61;75.57
75745;BME280;74462;51.366;-0.222;2024-02-23T00:24:34;98465.09;;;4.64;75.54
75745;BME280;74462;51.366;-0.222;2024-02-23T00:25:40;98461.37;;;4.66;75.51
75745;BME280;74462;51.366;-0.222;2024-02-23T00:26:44;98463.08;;;4.69;75.30
75745;BME280;74462;51.366;-0.222;2024-02-23T00:27:49;98462.34;;;4.69;75.13
75745;BME280;74462;51.366;-0.222;2024-02-23T00:28:53;98462.95;;;4.66;75.14
75745;BME280;74462;51.366;-0.222;2024-02-23T00:29:58;98455.76;;;4.68;75.31
75745;BME280;74462;51.366;-0.222;2024-02-23T00:31:03;98458.64;;;4.69;75.33
75745;BME280;74462;51.366;-0.222;2024-02-23T00:32:07;98457.40;;;4.67;75.13
75745;BME280;74462;51.366;-0.222;2024-02-23T00:33:12;98458.39;;;4.74;75.24
75745;BME280;74462;51.366;-0.222;2024-02-23T00:34:17;98456.77;;;4.76;74.89
75745;BME280;74462;51.366;-0.222;2024-02-23T00:35:21;98455.73;;;4.68;75.07
75745;BME280;74462;51.366;-0.222;2024-02-23T00:36:26;98446.36;;;4.75;75.07
75745;BME280;74462;51.366;-0.222;2024-02-23T00:37:30;98446.88;;;4.73;75.02
75745;BME280;74462;51.366;-0.222;2024-02-23T00:38:38;98449.41;;;4.78;75.14
75745;BME280;74462;51.366;-0.222;2024-02-23T00:39:42;98446.70;;;4.82;74.86
75745;BME280;74462;51.366;-0.222;2024-02-23T00:40:47;98444.66;;;4.87;75.13
75745;BME280;74462;51.366;-0.222;2024-02-23T00:41:51;98439.89;;;4.91;74.91
75745;BME280;74462;51.366;-0.222;2024-02-23T00:42:56;98439.52;;;4.88;75.40
75745;BME280;74462;51.366;-0.222;2024-02-23T00:44:03;98440.09;;;4.84;75.31
75745;BME280;74462;51.366;-0.222;2024-02-23T00:45:09;98439.23;;;4.83;75.24
75745;BME280;74462;51.366;-0.222;2024-02-23T00:46:13;98438.86;;;4.91;75.31
75745;BME280;74462;51.366;-0.222;2024-02-23T00:47:18;98438.69;;;4.82;75.55
75745;BME280;74462;51.366;-0.222;2024-02-23T00:48:23;98440.09;;;4.89;75.32
75745;BME280;74462;51.366;-0.222;2024-02-23T00:49:27;98438.69;;;4.95;75.31
75745;BME280;74462;51.366;-0.222;2024-02-23T00:50:32;98441.81;;;4.89;75.10
75745;BME280;74462;51.366;-0.222;2024-02-23T00:51:37;98438.70;;;4.90;75.34
75745;BME280;74462;51.366;-0.222;2024-02-23T00:52:41;98441.94;;;4.93;75.43
75745;BME280;74462;51.366;-0.222;2024-02-23T00:53:45;98440.55;;;4.93;75.42
75745;BME280;74462;51.366;-0.222;2024-02-23T00:54:50;98436.05;;;4.94;75.35
75745;BME280;74462;51.366;-0.222;2024-02-23T00:55:54;98431.34;;;4.96;75.43
75745;BME280;74462;51.366;-0.222;2024-02-23T00:56:59;98430.56;;;4.95;75.51
75745;BME280;74462;51.366;-0.222;2024-02-23T00:58:03;98427.17;;;5.00;75.36
75745;BME280;74462;51.366;-0.222;2024-02-23T00:59:08;98428.85;;;4.99;75.43
75745;BME280;74462;51.366;-0.222;2024-02-23T01:00:13;98429.17;;;4.97;75.51
75745;BME280;74462;51.366;-0.222;2024-02-23T01:01:18;98427.86;;;4.92;75.42
75745;BME280;74462;51.366;-0.222;2024-02-23T01:02:23;98429.10;;;4.96;75.59
75745;BME280;74462;51.366;-0.222;2024-02-23T01:03:27;98430.48;;;4.98;75.81
75745;BME280;74462;51.366;-0.222;2024-02-23T01:04:31;98430.67;;;4.90;75.67
75745;BME280;74462;51.366;-0.222;2024-02-23T01:05:36;98431.30;;;4.93;75.59
75745;BME280;74462;51.366;-0.222;2024-02-23T01:06:41;98422.32;;;4.97;75.47
75745;BME280;74462;51.366;-0.222;2024-02-23T01:07:45;98418.07;;;5.01;75.56
75745;BME280;74462;51.366;-0.222;2024-02-23T01:08:50;98420.10;;;4.90;75.62
75745;BME280;74462;51.366;-0.222;2024-02-23T01:09:55;98415.41;;;4.90;75.67
75745;BME280;74462;51.366;-0.222;2024-02-23T01:10:59;98414.81;;;4.87;75.80
75745;BME280;74462;51.366;-0.222;2024-02-23T01:12:04;98411.61;;;4.89;75.75
75745;BME280;74462;51.366;-0.222;2024-02-23T01:13:09;98414.16;;;4.90;75.98
75745;BME280;74462;51.366;-0.222;2024-02-23T01:14:13;98413.21;;;4.92;75.91
75745;BME280;74462;51.366;-0.222;2024-02-23T01:15:18;98412.13;;;4.97;75.67
75745;BME280;74462;51.366;-0.222;2024-02-23T01:16:22;98405.88;;;4.98;75.79
75745;BME280;74462;51.366;-0.222;2024-02-23T01:17:27;98404.98;;;4.96;75.88
75745;BME280;74462;51.366;-0.222;2024-02-23T01:18:31;98406.24;;;4.90;75.91
75745;BME280;74462;51.366;-0.222;2024-02-23T01:19:36;98408.23;;;4.87;76.18
75745;BME280;74462;51.366;-0.222;2024-02-23T01:20:40;98407.07;;;4.87;76.23
75745;BME280;74462;51.366;-0.222;2024-02-23T01:21:45;98405.71;;;4.86;76.22
75745;BME280;74462;51.366;-0.222;2024-02-23T01:22:49;98402.39;;;4.84;76.08
75745;BME280;74462;51.366;-0.222;2024-02-23T01:23:54;98401.79;;;4.87;76.29
75745;BME280;74462;51.366;-0.222;2024-02-23T01:25:00;98403.56;;;4.88;76.38
75745;BME280;74462;51.366;-0.222;2024-02-23T01:26:05;98404.16;;;4.93;76.43
75745;BME280;74462;51.366;-0.222;2024-02-23T01:27:09;98400.07;;;4.88;76.45
75745;BME280;74462;51.366;-0.222;2024-02-23T01:28:14;98395.00;;;4.86;76.60
75745;BME280;74462;51.366;-0.222;2024-02-23T01:29:18;98394.81;;;4.90;76.51
75745;BME280;74462;51.366;-0.222;2024-02-23T01:30:23;98394.14;;;4.91;76.43
75745;BME280;74462;51.366;-0.222;2024-02-23T01:31:27;98391.39;;;4.91;76.41
75745;BME280;74462;51.366;-0.222;2024-02-23T01:32:31;98391.60;;;4.92;76.57
75745;BME280;74462;51.366;-0.222;2024-02-23T01:33:36;98391.13;;;4.88;76.73
75745;BME280;74462;51.366;-0.222;2024-02-23T01:34:41;98384.81;;;4.90;76.78
75745;BME280;74462;51.366;-0.222;2024-02-23T01:35:45;98383.46;;;4.97;76.63
75745;BME280;74462;51.366;-0.222;2024-02-23T01:36:50;98382.36;;;4.95;76.66
75745;BME280;74462;51.366;-0.222;2024-02-23T01:37:54;98382.77;;;4.89;76.82
75745;BME280;74462;51.366;-0.222;2024-02-23T01:38:59;98380.48;;;4.83;76.81
75745;BME280;74462;51.366;-0.222;2024-02-23T01:40:04;98375.58;;;4.83;76.70
75745;BME280;74462;51.366;-0.222;2024-02-23T01:41:09;98379.38;;;4.82;76.95
75745;BME280;74462;51.366;-0.222;2024-02-23T01:42:15;98373.73;;;4.86;76.98
75745;BME280;74462;51.366;-0.222;2024-02-23T01:43:20;98378.02;;;4.82;77.14
75745;BME280;74462;51.366;-0.222;2024-02-23T01:44:25;98379.59;;;4.83;77.15
75745;BME280;74462;51.366;-0.222;2024-02-23T01:45:29;98374.21;;;4.83;77.37
75745;BME280;74462;51.366;-0.222;2024-02-23T01:46:34;98372.77;;;4.85;77.25
75745;BME280;74462;51.366;-0.222;2024-02-23T01:47:38;98364.02;;;4.84;77.32
75745;BME280;74462;51.366;-0.222;2024-02-23T01:48:43;98360.81;;;4.87;77.26
75745;BME280;74462;51.366;-0.222;2024-02-23T01:49:48;98365.77;;;4.83;77.28
75745;BME280;74462;51.366;-0.222;2024-02-23T01:50:52;98366.64;;;4.83;77.54
75745;BME280;74462;51.366;-0.222;2024-02-23T01:51:58;98358.42;;;4.83;77.53
75745;BME280;74462;51.366;-0.222;2024-02-23T01:53:03;98365.60;;;4.79;77.71
75745;BME280;74462;51.366;-0.222;2024-02-23T01:54:08;98363.20;;;4.80;77.67
75745;BME280;74462;51.366;-0.222;2024-02-23T01:55:13;98354.20;;;4.85;77.72
75745;BME280;74462;51.366;-0.222;2024-02-23T01:56:18;98351.14;;;4.85;77.64
75745;BME280;74462;51.366;-0.222;2024-02-23T01:57:24;98352.73;;;4.83;77.86
75745;BME280;74462;51.366;-0.222;2024-02-23T01:58:29;98357.33;;;4.85;77.91
75745;BME280;74462;51.366;-0.222;2024-02-23T01:59:34;98350.60;;;4.87;77.67
75745;BME280;74462;51.366;-0.222;2024-02-23T02:00:40;98348.96;;;4.88;77.79
75745;BME280;74462;51.366;-0.222;2024-02-23T02:01:45;98349.08;;;4.86;77.79
75745;BME280;74462;51.366;-0.222;2024-02-23T02:02:50;98345.48;;;4.89;77.79
75745;BME280;74462;51.366;-0.222;2024-02-23T02:03:55;98345.56;;;4.88;77.76
75745;BME280;74462;51.366;-0.222;2024-02-23T02:05:00;98348.91;;;4.84;77.90
75745;BME280;74462;51.366;-0.222;2024-02-23T02:06:05;98344.98;;;4.87;77.88
75745;BME280;74462;51.366;-0.222;2024-02-23T02:07:10;98342.02;;;4.89;77.76
75745;BME280;74462;51.366;-0.222;2024-02-23T02:08:15;98343.57;;;4.87;77.75
75745;BME280;74462;51.366;-0.222;2024-02-23T02:09:20;98338.48;;;4.89;77.76
75745;BME280;74462;51.366;-0.222;2024-02-23T02:10:24;98338.60;;;4.91;77.99
75745;BME280;74462;51.366;-0.222;2024-02-23T02:11:29;98335.11;;;4.91;77.72
75745;BME280;74462;51.366;-0.222;2024-02-23T02:12:33;98334.25;;;4.91;77.81
75745;BME280;74462;51.366;-0.222;2024-02-23T02:13:38;98332.44;;;4.87;78.02
75745;BME280;74462;51.366;-0.222;2024-02-23T02:14:42;98327.89;;;4.93;77.92
75745;BME280;74462;51.366;-0.222;2024-02-23T02:15:47;98326.46;;;4.88;78.06
75745;BME280;74462;51.366;-0.222;2024-02-23T02:16:51;98321.87;;;4.91;77.99
75745;BME280;74462;51.366;-0.222;2024-02-23T02:17:56;98315.79;;;4.91;77.79
75745;BME280;74462;51.366;-0.222;2024-02-23T02:19:00;98311.45;;;4.88;77.90
75745;BME280;74462;51.366;-0.222;2024-02-23T02:20:06;98304.11;;;4.89;77.85
75745;BME280;74462;51.366;-0.222;2024-02-23T02:21:11;98303.58;;;4.95;78.13
75745;BME280;74462;51.366;-0.222;2024-02-23T02:22:16;98297.81;;;4.93;78.00
75745;BME280;74462;51.366;-0.222;2024-02-23T02:23:20;98294.65;;;4.93;77.88
75745;BME280;74462;51.366;-0.222;2024-02-23T02:24:25;98288.95;;;4.91;78.18
75745;BME280;74462;51.366;-0.222;2024-02-23T02:25:29;98293.61;;;4.91;78.19
75745;BME280;74462;51.366;-0.222;2024-02-23T02:26:34;98291.04;;;4.88;78.12
75745;BME280;74462;51.366;-0.222;2024-02-23T02:27:39;98288.69;;;4.91;78.03
75745;BME280;74462;51.366;-0.222;2024-02-23T02:28:43;98292.11;;;4.90;78.09
75745;BME280;74462;51.366;-0.222;2024-02-23T02:29:49;98294.91;;;4.83;78.22
75745;BME280;74462;51.366;-0.222;2024-02-23T02:30:54;98292.95;;;4.85;78.31
75745;BME280;74462;51.366;-0.222;2024-02-23T02:31:59;98290.77;;;4.87;78.22
75745;BME280;74462;51.366;-0.222;2024-02-23T02:33:03;98288.38;;;4.83;78.25
75745;BME280;74462;51.366;-0.222;2024-02-23T02:34:08;98287.30;;;4.81;78.48
75745;BME280;74462;51.366;-0.222;2024-02-23T02:35:16;98283.39;;;4.80;78.35
75745;BME280;74462;51.366;-0.222;2024-02-23T02:36:20;98281.26;;;4.80;78.46
75745;BME280;74462;51.366;-0.222;2024-02-23T02:37:25;98273.45;;;4.81;78.46
75745;BME280;74462;51.366;-0.222;2024-02-23T02:38:29;98275.12;;;4.82;78.56
75745;BME280;74462;51.366;-0.222;2024-02-23T02:39:37;98276.06;;;4.81;78.71
75745;BME280;74462;51.366;-0.222;2024-02-23T02:40:41;98271.02;;;4.85;78.88
75745;BME280;74462;51.366;-0.222;2024-02-23T02:41:47;98269.19;;;4.83;78.73
75745;BME280;74462;51.366;-0.222;2024-02-23T02:42:52;98274.60;;;4.84;79.13
75745;BME280;74462;51.366;-0.222;2024-02-23T02:43:56;98275.94;;;4.86;78.94
75745;BME280;74462;51.366;-0.222;2024-02-23T02:45:01;98267.51;;;4.88;78.88
75745;BME280;74462;51.366;-0.222;2024-02-23T02:46:06;98267.91;;;4.91;78.77
75745;BME280;74462;51.366;-0.222;2024-02-23T02:47:10;98270.59;;;4.91;78.78
75745;BME280;74462;51.366;-0.222;2024-02-23T02:48:15;98266.98;;;4.92;78.64
75745;BME280;74462;51.366;-0.222;2024-02-23T02:49:19;98267.96;;;4.94;78.82
75745;BME280;74462;51.366;-0.222;2024-02-23T02:50:24;98265.56;;;5.00;78.87
75745;BME280;74462;51.366;-0.222;2024-02-23T02:51:28;98269.20;;;5.04;78.66
75745;BME280;74462;51.366;-0.222;2024-02-23T02:52:33;98266.96;;;4.98;78.74
75745;BME280;74462;51.366;-0.222;2024-02-23T02:53:37;98263.52;;;4.99;78.73
75745;BME280;74462;51.366;-0.222;2024-02-23T02:54:42;98267.52;;;5.00;78.78
75745;BME280;74462;51.366;-0.222;2024-02-23T02:55:46;98256.59;;;5.01;78.69
75745;BME280;74462;51.366;-0.222;2024-02-23T02:56:50;98254.73;;;5.06;78.78
75745;BME280;74462;51.366;-0.222;2024-02-23T02:57:57;98256.23;;;5.12;78.57
75745;BME280;74462;51.366;-0.222;2024-02-23T02:59:01;98257.64;;;5.14;78.48
75745;BME280;74462;51.366;-0.222;2024-02-23T03:00:11;98256.93;;;5.10;78.83
75745;BME280;74462;51.366;-0.222;2024-02-23T03:01:16;98253.47;;;5.10;79.19
75745;BME280;74462;51.366;-0.222;2024-02-23T03:02:21;98256.91;;;5.12;79.26
75745;BME280;74462;51.366;-0.222;2024-02-23T03:03:25;98258.29;;;5.11;79.07
75745;BME280;74462;51.366;-0.222;2024-02-23T03:04:29;98254.85;;;5.10;79.37
75745;BME280;74462;51.366;-0.222;2024-02-23T03:05:34;98250.92;;;5.12;79.37
75745;BME280;74462;51.366;-0.222;2024-02-23T03:06:38;98245.64;;;5.12;79.33
75745;BME280;74462;51.366;-0.222;2024-02-23T03:07:43;98247.67;;;5.17;79.63
75745;BME280;74462;51.366;-0.222;2024-02-23T03:08:47;98245.39;;;5.17;79.93
75745;BME280;74462;51.366;-0.222;2024-02-23T03:09:52;98241.79;;;5.19;80.49
75745;BME280;74462;51.366;-0.222;2024-02-23T03:10:57;98239.23;;;5.17;79.29
75745;BME280;74462;51.366;-0.222;2024-02-23T03:12:01;98239.47;;;5.16;79.85
75745;BME280;74462;51.366;-0.222;2024-02-23T03:13:06;98236.40;;;5.19;79.74
75745;BME280;74462;51.366;-0.222;2024-02-23T03:14:11;98236.80;;;5.18;79.69
75745;BME280;74462;51.366;-0.222;2024-02-23T03:15:16;98233.10;;;5.15;79.84
75745;BME280;74462;51.366;-0.222;2024-02-23T03:16:21;98232.67;;;5.10;80.01
75745;BME280;74462;51.366;-0.222;2024-02-23T03:17:29;98227.51;;;5.13;80.15
75745;BME280;74462;51.366;-0.222;2024-02-23T03:18:33;98229.00;;;5.07;80.40
75745;BME280;74462;51.366;-0.222;2024-02-23T03:19:38;98222.73;;;5.08;80.39
75745;BME280;74462;51.366;-0.222;2024-02-23T03:20:43;98220.15;;;5.09;80.63
75745;BME280;74462;51.366;-0.222;2024-02-23T03:21:47;98217.41;;;5.05;80.17
75745;BME280;74462;51.366;-0.222;2024-02-23T03:22:52;98208.88;;;5.05;80.32
75745;BME280;74462;51.366;-0.222;2024-02-23T03:23:56;98205.66;;;5.04;80.53
75745;BME280;74462;51.366;-0.222;2024-02-23T03:25:01;98204.72;;;5.03;80.59
75745;BME280;74462;51.366;-0.222;2024-02-23T03:26:09;98205.67;;;5.06;80.43
75745;BME280;74462;51.366;-0.222;2024-02-23T03:27:13;98204.19;;;5.05;80.81
75745;BME280;74462;51.366;-0.222;2024-02-23T03:28:18;98203.30;;;5.03;80.60
75745;BME280;74462;51.366;-0.222;2024-02-23T03:29:22;98205.61;;;5.01;80.50
75745;BME280;74462;51.366;-0.222;2024-02-23T03:30:27;98202.65;;;5.06;80.54
75745;BME280;74462;51.366;-0.222;2024-02-23T03:31:32;98201.14;;;5.07;80.51
75745;BME280;74462;51.366;-0.222;2024-02-23T03:32:36;98198.64;;;5.11;80.29
75745;BME280;74462;51.366;-0.222;2024-02-23T03:33:41;98201.73;;;5.12;80.20
75745;BME280;74462;51.366;-0.222;2024-02-23T03:34:46;98199.55;;;5.14;80.28
75745;BME280;74462;51.366;-0.222;2024-02-23T03:35:51;98198.56;;;5.10;80.44
75745;BME280;74462;51.366;-0.222;2024-02-23T03:36:56;98193.27;;;5.12;80.50
75745;BME280;74462;51.366;-0.222;2024-02-23T03:38:01;98191.47;;;5.11;80.32
75745;BME280;74462;51.366;-0.222;2024-02-23T03:39:05;98189.96;;;5.12;80.49
75745;BME280;74462;51.366;-0.222;2024-02-23T03:40:12;98195.73;;;5.10;80.28
75745;BME280;74462;51.366;-0.222;2024-02-23T03:41:17;98192.09;;;5.10;80.14
75745;BME280;74462;51.366;-0.222;2024-02-23T03:42:21;98193.33;;;5.08;80.13
75745;BME280;74462;51.366;-0.222;2024-02-23T03:43:25;98192.53;;;5.10;80.32
75745;BME280;74462;51.366;-0.222;2024-02-23T03:44:30;98196.84;;;5.06;80.01
75745;BME280;74462;51.366;-0.222;2024-02-23T03:45:34;98193.56;;;5.04;80.07
75745;BME280;74462;51.366;-0.222;2024-02-23T03:46:39;98194.46;;;5.05;80.32
75745;BME280;74462;51.366;-0.222;2024-02-23T03:47:43;98195.59;;;5.10;80.22
75745;BME280;74462;51.366;-0.222;2024-02-23T03:48:48;98194.58;;;5.08;79.93
75745;BME280;74462;51.366;-0.222;2024-02-23T03:49:52;98196.14;;;5.04;80.26
75745;BME280;74462;51.366;-0.222;2024-02-23T03:50:57;98191.02;;;5.05;80.39
75745;BME280;74462;51.366;-0.222;2024-02-23T03:52:01;98189.64;;;5.04;80.48
75745;BME280;74462;51.366;-0.222;2024-02-23T03:53:06;98190.94;;;5.02;80.49
75745;BME280;74462;51.366;-0.222;2024-02-23T03:54:10;98193.39;;;5.02;80.43
75745;BME280;74462;51.366;-0.222;2024-02-23T03:55:15;98196.48;;;5.03;80.72
75745;BME280;74462;51.366;-0.222;2024-02-23T03:56:20;98195.92;;;5.03;80.60
75745;BME280;74462;51.366;-0.222;2024-02-23T03:57:24;98197.89;;;5.05;80.88
75745;BME280;74462;51.366;-0.222;2024-02-23T03:58:28;98201.14;;;5.07;80.98
75745;BME280;74462;51.366;-0.222;2024-02-23T03:59:35;98203.91;;;5.07;80.84
75745;BME280;74462;51.366;-0.222;2024-02-23T04:00:40;98208.44;;;5.12;80.78
75745;BME280;74462;51.366;-0.222;2024-02-23T04:01:44;98209.70;;;5.13;81.00
75745;BME280;74462;51.366;-0.222;2024-02-23T04:02:48;98204.92;;;5.17;80.93
75745;BME280;74462;51.366;-0.222;2024-02-23T04:03:53;98204.39;;;5.17;81.04
75745;BME280;74462;51.366;-0.222;2024-02-23T04:04:57;98208.79;;;5.20;80.73
75745;BME280;74462;51.366;-0.222;2024-02-23T04:06:02;98204.61;;;5.24;80.90
75745;BME280;74462;51.366;-0.222;2024-02-23T04:07:07;98201.09;;;5.24;81.01
75745;BME280;74462;51.366;-0.222;2024-02-23T04:08:12;98200.98;;;5.25;81.09
75745;BME280;74462;51.366;-0.222;2024-02-23T04:09:16;98198.80;;;5.24;81.08
75745;BME280;74462;51.366;-0.222;2024-02-23T04:10:21;98207.16;;;5.25;81.03
75745;BME280;74462;51.366;-0.222;2024-02-23T04:11:25;98204.70;;;5.27;80.58
75745;BME280;74462;51.366;-0.222;2024-02-23T04:12:30;98204.91;;;5.31;80.24
75745;BME280;74462;51.366;-0.222;2024-02-23T04:13:34;98207.05;;;5.33;80.66
75745;BME280;74462;51.366;-0.222;2024-02-23T04:14:39;98212.16;;;5.36;80.70
75745;BME280;74462;51.366;-0.222;2024-02-23T04:15:43;98214.16;;;5.37;80.57
75745;BME280;74462;51.366;-0.222;2024-02-23T04:16:48;98218.19;;;5.38;80.37
75745;BME280;74462;51.366;-0.222;2024-02-23T04:17:52;98215.00;;;5.39;79.92
75745;BME280;74462;51.366;-0.222;2024-02-23T04:18:57;98216.10;;;5.41;79.51
75745;BME280;74462;51.366;-0.222;2024-02-23T04:20:07;98217.42;;;5.45;79.41
75745;BME280;74462;51.366;-0.222;2024-02-23T04:21:12;98218.41;;;5.46;79.57
75745;BME280;74462;51.366;-0.222;2024-02-23T04:22:18;98219.10;;;5.50;79.51
75745;BME280;74462;51.366;-0.222;2024-02-23T04:23:23;98215.89;;;5.52;79.68
75745;BME280;74462;51.366;-0.222;2024-02-23T04:24:27;98215.52;;;5.52;79.47
75745;BME280;74462;51.366;-0.222;2024-02-23T04:25:32;98216.63;;;5.55;79.13
75745;BME280;74462;51.366;-0.222;2024-02-23T04:26:36;98217.41;;;5.56;79.55
75745;BME280;74462;51.366;-0.222;2024-02-23T04:27:41;98215.36;;;5.57;79.59
75745;BME280;74462;51.366;-0.222;2024-02-23T04:28:46;98214.19;;;5.60;79.32
75745;BME280;74462;51.366;-0.222;2024-02-23T04:29:50;98215.55;;;5.61;79.30
75745;BME280;74462;51.366;-0.222;2024-02-23T04:30:55;98215.94;;;5.58;79.33
75745;BME280;74462;51.366;-0.222;2024-02-23T04:32:00;98215.42;;;5.57;79.40
75745;BME280;74462;51.366;-0.222;2024-02-23T04:33:05;98216.99;;;5.60;79.62
75745;BME280;74462;51.366;-0.222;2024-02-23T04:34:10;98218.05;;;5.60;79.04
75745;BME280;74462;51.366;-0.222;2024-02-23T04:35:14;98212.78;;;5.62;79.17
75745;BME280;74462;51.366;-0.222;2024-02-23T04:36:21;98216.49;;;5.64;79.28
75745;BME280;74462;51.366;-0.222;2024-02-23T04:37:26;98216.80;;;5.64;79.22
75745;BME280;74462;51.366;-0.222;2024-02-23T04:38:30;98211.84;;;5.64;79.24
75745;BME280;74462;51.366;-0.222;2024-02-23T04:39:35;98214.25;;;5.63;79.56
75745;BME280;74462;51.366;-0.222;2024-02-23T04:40:41;98217.38;;;5.63;79.25
75745;BME280;74462;51.366;-0.222;2024-02-23T04:41:45;98218.48;;;5.65;79.24
75745;BME280;74462;51.366;-0.222;2024-02-23T04:42:50;98217.13;;;5.64;79.17
75745;BME280;74462;51.366;-0.222;2024-02-23T04:43:54;98216.25;;;5.66;79.17
75745;BME280;74462;51.366;-0.222;2024-02-23T04:45:03;98217.00;;;5.67;79.26
75745;BME280;74462;51.366;-0.222;2024-02-23T04:46:07;98218.46;;;5.67;79.35
75745;BME280;74462;51.366;-0.222;2024-02-23T04:47:12;98225.77;;;5.70;79.23
75745;BME280;74462;51.366;-0.222;2024-02-23T04:48:16;98219.45;;;5.71;79.20
75745;BME280;74462;51.366;-0.222;2024-02-23T04:49:21;98224.63;;;5.70;79.34
75745;BME280;74462;51.366;-0.222;2024-02-23T04:50:25;98215.64;;;5.69;79.12
75745;BME280;74462;51.366;-0.222;2024-02-23T04:51:30;98220.21;;;5.62;78.93
75745;BME280;74462;51.366;-0.222;2024-02-23T04:52:34;98223.64;;;5.63;79.02
75745;BME280;74462;51.366;-0.222;2024-02-23T04:53:39;98220.52;;;5.59;79.09
75745;BME280;74462;51.366;-0.222;2024-02-23T04:54:43;98227.90;;;5.62;78.63
75745;BME280;74462;51.366;-0.222;2024-02-23T04:55:48;98226.48;;;5.62;78.55
75745;BME280;74462;51.366;-0.222;2024-02-23T04:56:52;98231.16;;;5.65;78.75
75745;BME280;74462;51.366;-0.222;2024-02-23T04:57:57;98234.45;;;5.64;78.58
75745;BME280;74462;51.366;-0.222;2024-02-23T04:59:01;98236.80;;;5.65;78.92
75745;BME280;74462;51.366;-0.222;2024-02-23T05:00:08;98236.34;;;5.64;79.09
75745;BME280;74462;51.366;-0.222;2024-02-23T05:01:12;98236.64;;;5.59;78.88
75745;BME280;74462;51.366;-0.222;2024-02-23T05:02:17;98235.02;;;5.61;78.86
75745;BME280;74462;51.366;-0.222;2024-02-23T05:03:21;98241.33;;;5.60;79.08
75745;BME280;74462;51.366;-0.222;2024-02-23T05:04:26;98248.67;;;5.59;78.91
75745;BME280;74462;51.366;-0.222;2024-02-23T05:05:31;98247.23;;;5.55;78.93
75745;BME280;74462;51.366;-0.222;2024-02-23T05:06:36;98245.77;;;5.60;78.79
75745;BME280;74462;51.366;-0.222;2024-02-23T05:07:40;98252.17;;;5.59;78.87
75745;BME280;74462;51.366;-0.222;2024-02-23T05:08:45;98249.00;;;5.59;78.59
75745;BME280;74462;51.366;-0.222;2024-02-23T05:09:49;98254.00;;;5.60;78.73
75745;BME280;74462;51.366;-0.222;2024-02-23T05:10:54;98251.94;;;5.58;78.73
75745;BME280;74462;51.366;-0.222;2024-02-23T05:11:58;98255.05;;;5.56;78.69
75745;BME280;74462;51.366;-0.222;2024-02-23T05:13:03;98258.24;;;5.54;78.78
75745;BME280;74462;51.366;-0.222;2024-02-23T05:14:08;98255.88;;;5.51;78.85
75745;BME280;74462;51.366;-0.222;2024-02-23T05:15:13;98256.71;;;5.52;78.66
75745;BME280;74462;51.366;-0.222;2024-02-23T05:16:17;98263.05;;;5.48;78.70
75745;BME280;74462;51.366;-0.222;2024-02-23T05:17:22;98258.19;;;5.51;78.76
75745;BME280;74462;51.366;-0.222;2024-02-23T05:18:26;98257.74;;;5.49;78.60
75745;BME280;74462;51.366;-0.222;2024-02-23T05:19:31;98261.39;;;5.51;78.47
75745;BME280;74462;51.366;-0.222;2024-02-23T05:20:35;98259.83;;;5.49;78.44
75745;BME280;74462;51.366;-0.222;2024-02-23T05:21:40;98256.85;;;5.49;78.20
75745;BME280;74462;51.366;-0.222;2024-02-23T05:22:44;98263.55;;;5.49;78.42
75745;BME280;74462;51.366;-0.222;2024-02-23T05:23:48;98263.20;;;5.47;78.39
75745;BME280;74462;51.366;-0.222;2024-02-23T05:24:53;98263.30;;;5.47;78.55
75745;BME280;74462;51.366;-0.222;2024-02-23T05:25:57;98263.65;;;5.49;78.32
75745;BME280;74462;51.366;-0.222;2024-02-23T05:27:02;98265.75;;;5.48;78.32
75745;BME280;74462;51.366;-0.222;2024-02-23T05:28:07;98270.10;;;5.47;78.05
75745;BME280;74462;51.366;-0.222;2024-02-23T05:29:11;98271.59;;;5.44;78.22
75745;BME280;74462;51.366;-0.222;2024-02-23T05:30:20;98274.84;;;5.45;78.47
75745;BME280;74462;51.366;-0.222;2024-02-23T05:31:45;98276.16;;;5.44;78.26
75745;BME280;74462;51.366;-0.222;2024-02-23T05:32:50;98274.11;;;5.42;78.20
75745;BME280;74462;51.366;-0.222;2024-02-23T05:33:54;98275.45;;;5.44;78.37
75745;BME280;74462;51.366;-0.222;2024-02-23T05:34:59;98279.49;;;5.42;78.17
75745;BME280;74462;51.366;-0.222;2024-02-23T05:36:05;98279.27;;;5.43;77.98
75745;BME280;74462;51.366;-0.222;2024-02-23T05:37:10;98278.73;;;5.45;78.01
75745;BME280;74462;51.366;-0.222;2024-02-23T05:38:14;98275.63;;;5.44;78.23
75745;BME280;74462;51.366;-0.222;2024-02-23T05:39:19;98273.77;;;5.45;78.18
75745;BME280;74462;51.366;-0.222;2024-02-23T05:40:23;98276.20;;;5.42;78.12
75745;BME280;74462;51.366;-0.222;2024-02-23T05:41:28;98279.33;;;5.42;78.13
75745;BME280;74462;51.366;-0.222;2024-02-23T05:42:32;98278.68;;;5.40;77.97
75745;BME280;74462;51.366;-0.222;2024-02-23T05:43:37;98279.00;;;5.38;78.09